Time;durP1;ratioP1;P1;durP2;ratioP2;P2;SDS_P1;SDS_P2;PMS_P1;PMS_P2;Temp;Humidity;BMP_temperature;BMP_pressure;BME280_temperature;BME280_humidity;BME280_pressure;Samples;Min_cycle;Max_cycle;Signal;HPM_P1;HPM_P2
2022/03/27 04:00:19;;;;;;;26.10;13.35;;;7.50;94.60;;;-143.14;100.00;56521.75;6107348;23;21321;31
2022/03/27 04:02:46;;;;;;;22.30;13.03;;;7.50;94.60;;;-143.14;100.00;56521.75;4914960;29;20486;-75
2022/03/27 04:05:13;;;;;;;29.37;14.43;;;7.50;94.80;;;-143.14;100.00;56521.75;4920739;29;20557;-75
2022/03/27 04:07:41;;;;;;;24.13;14.37;;;7.50;94.90;;;-143.14;100.00;56521.75;4923757;29;20483;-75
2022/03/27 04:10:09;;;;;;;24.03;14.27;;;7.50;95.00;;;-143.14;100.00;56521.75;4926538;29;21038;-75
2022/03/27 04:12:36;;;;;;;25.60;14.20;;;7.50;94.80;;;-143.14;100.00;56521.75;4929200;29;20946;-75
2022/03/27 04:15:04;;;;;;;28.40;14.10;;;7.50;95.00;;;-143.14;100.00;56521.75;4929282;29;20546;-76
2022/03/27 04:17:33;;;;;;;24.57;12.87;;;7.40;95.40;;;-143.14;100.00;56521.75;4915784;29;20459;-75
2022/03/27 04:20:00;;;;;;;25.37;13.57;;;7.40;95.40;;;-143.14;100.00;56521.75;4925012;29;20494;-76
2022/03/27 04:22:27;;;;;;;24.20;13.30;;;7.40;95.60;;;-143.14;100.00;56521.75;4929455;29;20574;-76
2022/03/27 04:24:54;;;;;;;30.90;13.57;;;7.40;95.30;;;-143.14;100.00;56521.75;4920524;29;20454;-75
2022/03/27 04:27:21;;;;;;;24.47;14.17;;;7.40;95.20;;;-143.14;100.00;56521.75;4920543;29;20454;-77
2022/03/27 04:29:48;;;;;;;22.63;12.30;;;7.40;95.40;;;-143.14;100.00;56521.75;4916658;29;20459;-75
2022/03/27 04:32:15;;;;;;;25.97;13.03;;;7.40;95.10;;;-143.14;100.00;56521.75;4919308;29;20860;-75
2022/03/27 04:34:43;;;;;;;26.40;14.20;;;7.40;95.20;;;-143.14;100.00;56521.75;4929402;29;20461;-75
2022/03/27 04:37:11;;;;;;;30.53;13.87;;;7.40;95.30;;;-143.14;100.00;56521.75;4912387;29;20451;-75
2022/03/27 04:39:38;;;;;;;20.80;12.23;;;7.40;95.50;;;-143.14;100.00;56521.75;4909939;29;20510;-77
2022/03/27 04:42:06;;;;;;;24.10;12.30;;;7.30;96.00;;;-143.14;100.00;56521.75;4910295;29;20475;-76
2022/03/27 04:44:33;;;;;;;24.97;12.17;;;7.40;95.80;;;-143.14;100.00;56521.75;4910379;29;20871;-75
2022/03/27 04:47:00;;;;;;;25.90;13.50;;;7.30;95.60;;;-143.14;100.00;56521.75;4909486;29;20613;-76
2022/03/27 04:49:27;;;;;;;28.07;13.97;;;7.20;96.10;;;-143.14;100.00;56521.75;4909806;29;21005;-75
2022/03/27 04:51:56;;;;;;;23.90;13.70;;;7.10;96.50;;;-143.14;100.00;56521.75;4910511;29;20475;-75
2022/03/27 04:54:23;;;;;;;24.93;13.50;;;7.00;96.30;;;-143.14;100.00;56521.75;4910257;29;20455;-75
2022/03/27 04:56:50;;;;;;;21.23;12.30;;;7.00;96.70;;;-143.14;100.00;56521.75;4909690;29;20455;-75
2022/03/27 04:59:17;;;;;;;30.23;13.80;;;7.00;97.10;;;-143.14;100.00;56521.75;4909792;29;20788;-75
2022/03/27 05:01:44;;;;;;;20.00;13.27;;;6.90;97.60;;;-143.14;100.00;56521.75;4871879;29;1132474;-79
2022/03/27 05:04:11;;;;;;;27.77;14.70;;;6.90;97.50;;;-143.14;100.00;56521.75;4910863;29;20684;-75
2022/03/27 05:06:38;;;;;;;27.20;14.17;;;6.90;97.40;;;-143.14;100.00;56521.75;4910182;29;21007;-75
2022/03/27 05:09:07;;;;;;;25.10;13.40;;;6.90;97.60;;;-143.14;100.00;56521.75;4910126;29;20465;-76
2022/03/27 05:11:34;;;;;;;21.70;12.27;;;6.90;98.00;;;-143.14;100.00;56521.75;4911484;29;21027;-75
2022/03/27 05:14:01;;;;;;;22.83;13.20;;;6.90;98.20;;;-143.14;100.00;56521.75;4912392;29;20463;-78
2022/03/27 05:16:28;;;;;;;24.97;13.83;;;6.90;98.40;;;-143.14;100.00;56521.75;4912648;29;20474;-76
2022/03/27 05:18:55;;;;;;;22.40;13.27;;;6.90;98.40;;;-143.14;100.00;56521.75;4912804;29;20462;-77
2022/03/27 05:21:23;;;;;;;26.60;14.73;;;6.90;98.40;;;-143.14;100.00;56521.75;4913027;29;20513;-76
2022/03/27 05:23:50;;;;;;;29.03;14.50;;;6.90;98.70;;;-143.14;100.00;56521.75;4913069;29;20542;-77
2022/03/27 05:26:18;;;;;;;31.97;14.03;;;6.80;98.90;;;-143.14;100.00;56521.75;4912103;29;20816;-78
2022/03/27 05:28:45;;;;;;;25.90;14.00;;;6.80;99.00;;;-143.14;100.00;56521.75;4912236;29;20525;-76
2022/03/27 05:31:12;;;;;;;21.43;12.87;;;6.80;99.30;;;-143.14;100.00;56521.75;4912674;29;20479;-76
2022/03/27 05:33:40;;;;;;;28.83;13.93;;;6.80;99.50;;;-143.14;100.00;56521.75;4912661;29;20452;-76
2022/03/27 05:36:08;;;;;;;26.20;14.70;;;6.80;99.70;;;-143.14;100.00;56521.75;4912608;29;20455;-75
2022/03/27 05:38:37;;;;;;;24.17;14.10;;;6.80;99.80;;;-143.14;100.00;56521.75;4912169;29;20455;-76
2022/03/27 05:41:05;;;;;;;29.50;14.00;;;6.80;99.90;;;-143.14;100.00;56521.75;4912168;29;20507;-76
2022/03/27 05:43:33;;;;;;;25.33;14.60;;;6.80;99.90;;;-143.14;100.00;56521.75;4912434;29;20465;-76
2022/03/27 05:46:00;;;;;;;28.80;14.77;;;6.90;99.80;;;-143.14;100.00;56521.75;4912557;29;20502;-77
2022/03/27 05:48:27;;;;;;;27.80;14.60;;;6.90;99.80;;;-143.14;100.00;56521.75;4911603;29;20840;-76
2022/03/27 05:50:55;;;;;;;30.23;15.03;;;6.90;99.70;;;-143.14;100.00;56521.75;4911794;29;20482;-76
2022/03/27 05:53:22;;;;;;;27.43;14.80;;;6.90;99.70;;;-143.14;100.00;56521.75;4913019;29;20459;-76
2022/03/27 05:55:49;;;;;;;29.90;15.00;;;7.00;99.90;;;-143.14;100.00;56521.75;4912453;29;20458;-76
2022/03/27 05:58:17;;;;;;;24.20;13.10;;;7.00;99.70;;;-143.14;100.00;56521.75;4911729;29;20478;-75
2022/03/27 06:00:46;;;;;;;25.80;13.30;;;7.00;99.20;;;-143.14;100.00;56521.75;4911712;29;20503;-75
2022/03/27 06:03:13;;;;;;;24.67;13.60;;;6.90;99.20;;;-143.14;100.00;56521.75;4912331;29;20475;-77
2022/03/27 06:05:40;;;;;;;23.70;14.00;;;6.90;99.80;;;-143.14;100.00;56521.75;4911998;29;20463;-76
2022/03/27 06:08:07;;;;;;;28.87;14.23;;;6.90;99.90;;;-143.14;100.00;56521.75;4912114;29;20459;-77
2022/03/27 06:10:35;;;;;;;23.87;14.47;;;6.80;99.90;;;-143.14;100.00;56521.75;4911674;29;20475;-76
2022/03/27 06:13:04;;;;;;;25.37;13.90;;;6.70;99.90;;;-143.14;100.00;56521.75;4912366;29;20459;-76
2022/03/27 06:15:33;;;;;;;23.40;13.47;;;6.70;99.90;;;-143.14;100.00;56521.75;4911307;29;21123;-78
2022/03/27 06:18:01;;;;;;;31.83;13.60;;;6.70;99.90;;;-143.14;100.00;56521.75;4910637;29;20460;-78
2022/03/27 06:20:32;;;;;;;25.43;14.13;;;6.80;99.90;;;-143.14;100.00;56521.75;4912881;29;20598;-79
2022/03/27 06:23:01;;;;;;;30.47;14.30;;;6.70;99.90;;;-143.14;100.00;56521.75;4914796;29;20856;-80
2022/03/27 06:25:30;;;;;;;27.33;14.77;;;6.60;99.90;;;-143.14;100.00;56521.75;4914281;29;20470;-79
2022/03/27 06:27:59;;;;;;;25.93;14.60;;;6.60;99.90;;;-143.14;100.00;56521.75;4911910;29;20466;-79
2022/03/27 06:30:29;;;;;;;26.70;15.37;;;6.60;99.90;;;-143.14;100.00;56521.75;4911600;29;20463;-78
2022/03/27 06:32:57;;;;;;;25.13;14.60;;;6.80;99.90;;;-143.14;100.00;56521.75;4910575;29;20466;-79
2022/03/27 06:35:26;;;;;;;22.97;13.70;;;6.90;99.90;;;-143.14;100.00;56521.75;4913812;29;20455;-79
2022/03/27 06:37:54;;;;;;;24.20;14.10;;;7.00;99.90;;;-143.14;100.00;56521.75;4910907;29;20956;-78
2022/03/27 06:40:21;;;;;;;36.63;16.40;;;7.10;99.90;;;-143.14;100.00;56521.75;4911768;29;20570;-79
2022/03/27 06:42:50;;;;;;;30.87;15.47;;;7.20;99.90;;;-143.14;100.00;56521.75;4910926;29;20463;-78
2022/03/27 06:45:19;;;;;;;24.60;14.93;;;7.20;99.90;;;-143.14;100.00;56521.75;4911663;29;20456;-79
2022/03/27 06:47:48;;;;;;;30.80;14.80;;;7.30;99.90;;;-143.14;100.00;56521.75;4910430;29;20947;-79
2022/03/27 06:50:18;;;;;;;25.30;14.10;;;7.30;99.90;;;-143.14;100.00;56521.75;4912473;29;20948;-79
2022/03/27 06:52:47;;;;;;;24.77;13.83;;;7.40;99.90;;;-143.14;100.00;56521.75;4911691;29;20463;-79
2022/03/27 06:55:15;;;;;;;25.40;13.50;;;7.40;99.90;;;-143.14;100.00;56521.75;4911468;29;20466;-79
2022/03/27 06:57:43;;;;;;;22.83;13.50;;;7.50;99.90;;;-143.14;100.00;56521.75;4910560;29;20490;-79
2022/03/27 07:03:06;;;;;;;29.40;14.60;;;7.60;99.90;;;-143.14;100.00;56521.75;4911490;29;20587;-79
2022/03/27 07:05:37;;;;;;;29.03;14.00;;;7.70;99.90;;;-143.14;100.00;56521.75;4910773;29;20497;-79
2022/03/27 07:08:07;;;;;;;20.10;12.33;;;7.80;99.90;;;-143.14;100.00;56521.75;4909939;29;20466;-79
2022/03/27 07:10:35;;;;;;;24.13;14.10;;;7.90;99.90;;;-143.14;100.00;56521.75;4910672;29;20452;-67
2022/03/27 07:13:03;;;;;;;31.37;16.17;;;7.90;99.90;;;-143.14;100.00;56521.75;4908813;29;20828;-69
2022/03/27 07:15:31;;;;;;;28.67;14.70;;;8.00;99.90;;;-143.14;100.00;56521.75;4908714;29;20594;-69
2022/03/27 07:17:59;;;;;;;27.40;14.93;;;8.10;99.90;;;-143.14;100.00;56521.75;4908136;29;20534;-69
2022/03/27 07:20:29;;;;;;;25.67;15.80;;;8.20;99.90;;;-143.14;100.00;56521.75;4907775;29;20459;-78
2022/03/27 07:22:59;;;;;;;27.60;13.33;;;8.60;99.90;;;-143.14;100.00;56521.75;4909271;29;20451;-78
2022/03/27 07:25:32;;;;;;;27.20;13.10;;;8.80;99.90;;;-143.14;100.00;56521.75;4909967;29;20507;-78
2022/03/27 07:27:59;;;;;;;25.20;15.13;;;8.80;99.90;;;-143.14;100.00;56521.75;4908951;29;20471;-78
2022/03/27 07:30:27;;;;;;;23.80;12.60;;;8.90;99.90;;;-143.14;100.00;56521.75;4912318;29;20547;-78
2022/03/27 07:32:54;;;;;;;26.37;13.57;;;8.90;99.90;;;-143.14;100.00;56521.75;4912836;29;20451;-78
2022/03/27 07:35:21;;;;;;;31.37;14.93;;;9.00;99.90;;;-143.14;100.00;56521.75;4913486;29;20470;-78
2022/03/27 07:37:51;;;;;;;23.03;13.70;;;9.10;99.90;;;-143.14;100.00;56521.75;4912936;29;20465;-78
2022/03/27 07:40:19;;;;;;;22.37;12.67;;;9.20;99.90;;;-143.14;100.00;56521.75;4914389;29;20499;-78
2022/03/27 07:42:50;;;;;;;29.03;13.93;;;9.30;99.90;;;-143.14;100.00;56521.75;4916190;29;20459;-78
2022/03/27 07:45:19;;;;;;;27.53;14.00;;;9.50;99.90;;;-143.14;100.00;56521.75;4915242;29;20879;-78
2022/03/27 07:47:47;;;;;;;23.83;15.40;;;9.60;99.90;;;-143.14;100.00;56521.75;4914380;29;20455;-78
2022/03/27 07:50:15;;;;;;;23.43;13.67;;;9.70;99.90;;;-143.14;100.00;56521.75;4916071;29;20458;-79
2022/03/27 07:52:43;;;;;;;24.10;13.63;;;9.80;99.90;;;-143.14;100.00;56521.75;4915520;29;20538;-79
2022/03/27 07:55:12;;;;;;;22.73;13.80;;;10.00;99.90;;;-143.14;100.00;56521.75;4915601;29;20518;-79
2022/03/27 07:57:40;;;;;;;27.20;14.00;;;10.10;99.90;;;-143.14;100.00;56521.75;4914572;29;20467;-80
2022/03/27 08:00:11;;;;;;;21.70;12.50;;;10.30;99.90;;;-143.14;100.00;56521.75;4913975;29;20586;-79
2022/03/27 08:02:39;;;;;;;21.30;13.63;;;10.60;99.90;;;-143.14;100.00;56521.75;4914687;29;20570;-79
2022/03/27 08:05:07;;;;;;;21.93;13.17;;;11.10;99.90;;;-143.14;100.00;56521.75;4915153;29;20823;-79
2022/03/27 08:07:34;;;;;;;20.97;13.73;;;11.30;99.90;;;-143.14;100.00;56521.75;4916039;29;20451;-79
2022/03/27 08:10:02;;;;;;;21.40;13.93;;;11.40;99.90;;;-143.14;100.00;56521.75;4920257;29;20461;-79
2022/03/27 08:12:29;;;;;;;19.20;12.77;;;11.60;99.90;;;-143.14;100.00;56521.75;4920960;29;20577;-79
2022/03/27 08:14:57;;;;;;;20.70;12.13;;;11.80;99.90;;;-143.14;100.00;56521.75;4920580;29;20459;-80
2022/03/27 08:17:25;;;;;;;20.37;12.90;;;12.00;99.90;;;-143.14;100.00;56521.75;4918994;29;20454;-79
2022/03/27 08:19:52;;;;;;;23.53;12.67;;;12.10;99.80;;;-143.14;100.00;56521.75;4918916;29;20459;-79
2022/03/27 08:22:20;;;;;;;20.10;11.80;;;12.30;99.90;;;-143.14;100.00;56521.75;4914689;29;20483;-79
2022/03/27 08:24:48;;;;;;;20.90;12.40;;;12.70;98.90;;;-143.14;100.00;56521.75;4912530;29;20530;-80
2022/03/27 08:27:14;;;;;;;20.00;12.33;;;13.10;99.00;;;-143.14;100.00;56521.75;4912447;29;20826;-79
2022/03/27 08:29:43;;;;;;;22.73;12.33;;;13.30;96.90;;;-143.14;100.00;56521.75;4913091;29;20468;-79
2022/03/27 08:32:13;;;;;;;21.80;12.10;;;13.50;97.30;;;-143.14;100.00;56521.75;4913540;29;20486;-79
2022/03/27 08:34:45;;;;;;;22.13;12.53;;;13.80;96.70;;;-143.14;100.00;56521.75;4913305;29;20462;-79
2022/03/27 08:37:14;;;;;;;21.27;12.13;;;14.00;96.40;;;-143.14;100.00;56521.75;4913254;29;20466;-79
2022/03/27 08:39:44;;;;;;;25.47;12.07;;;14.40;95.00;;;-143.14;100.00;56521.75;4912975;29;20866;-79
2022/03/27 08:42:13;;;;;;;26.63;13.77;;;14.50;95.40;;;-143.14;100.00;56521.75;4910780;29;20487;-79
2022/03/27 08:44:40;;;;;;;22.00;11.83;;;14.70;95.00;;;-143.14;100.00;56521.75;4910553;29;20857;-79
2022/03/27 08:47:18;;;;;;;22.73;12.37;;;14.80;94.40;;;-143.14;100.00;56521.75;4911411;29;20487;-79
2022/03/27 08:49:59;;;;;;;21.40;11.80;;;15.00;94.20;;;-143.14;100.00;56521.75;4912360;29;20463;-79
2022/03/27 08:52:55;;;;;;;22.17;12.00;;;15.20;93.60;;;-143.14;100.00;56521.75;4911836;29;20486;-79
2022/03/27 08:55:38;;;;;;;22.17;12.97;;;15.50;93.20;;;-143.14;100.00;56521.75;4910449;29;20475;-79
2022/03/27 08:58:08;;;;;;;19.70;11.67;;;15.70;92.30;;;-143.14;100.00;56521.75;4911317;29;21131;-79
2022/03/27 09:00:35;;;;;;;20.43;12.77;;;15.90;92.30;;;-143.14;100.00;56521.75;4911301;29;20594;-79
2022/03/27 09:03:05;;;;;;;24.30;12.80;;;16.10;92.10;;;-143.14;100.00;56521.75;4915954;29;20470;-79
2022/03/27 09:05:36;;;;;;;20.87;12.40;;;16.20;91.60;;;-143.14;100.00;56521.75;4912060;29;20538;-79
2022/03/27 09:08:09;;;;;;;18.67;12.50;;;16.40;91.50;;;-143.14;100.00;56521.75;4911465;29;20554;-79
2022/03/27 09:10:37;;;;;;;17.27;10.97;;;16.40;91.50;;;-143.14;100.00;56521.75;4912055;29;20838;-79
2022/03/27 09:13:06;;;;;;;20.03;12.10;;;16.50;91.50;;;-143.14;100.00;56521.75;4911904;29;20448;-79
2022/03/27 09:15:33;;;;;;;21.23;11.33;;;16.70;91.00;;;-143.14;100.00;56521.75;4911638;29;20452;-79
2022/03/27 09:18:04;;;;;;;21.83;12.50;;;16.80;90.70;;;-143.14;100.00;56521.75;4911524;29;20810;-79
2022/03/27 09:20:39;;;;;;;21.13;12.40;;;17.00;90.00;;;-143.14;100.00;56521.75;4911659;29;20594;-79
2022/03/27 09:23:15;;;;;;;19.03;11.80;;;17.10;90.10;;;-143.14;100.00;56521.75;4911491;29;21157;-79
2022/03/27 09:25:53;;;;;;;19.77;11.50;;;17.20;89.00;;;-143.14;100.00;56521.75;4912000;29;20683;-79
2022/03/27 09:28:33;;;;;;;22.27;12.17;;;17.20;89.50;;;-143.14;100.00;56521.75;4911211;29;20545;-79
2022/03/27 09:31:04;;;;;;;20.77;12.03;;;17.40;89.50;;;-143.14;100.00;56521.75;4911144;29;20646;-79
2022/03/27 09:33:51;;;;;;;21.10;12.10;;;17.30;88.80;;;-143.14;100.00;56521.75;4911170;29;20455;-79
2022/03/27 09:36:25;;;;;;;25.63;12.90;;;17.50;87.10;;;-143.14;100.00;56521.75;4910831;29;20455;-79
2022/03/27 09:39:16;;;;;;;19.93;11.90;;;17.60;87.40;;;-143.14;100.00;56521.75;4911580;29;20494;-79
2022/03/27 09:41:46;;;;;;;17.57;11.83;;;17.70;86.80;;;-143.14;100.00;56521.75;4910725;29;20586;-79
2022/03/27 09:44:16;;;;;;;22.90;10.50;;;17.80;85.30;;;-143.14;100.00;56521.75;4911424;29;20951;-78
2022/03/27 09:46:57;;;;;;;18.17;11.17;;;17.90;85.60;;;-143.14;100.00;56521.75;4910474;29;20459;-78
2022/03/27 09:49:39;;;;;;;19.43;11.53;;;18.10;85.50;;;-143.14;100.00;56521.75;4902195;29;20453;-69
2022/03/27 09:52:11;;;;;;;20.53;11.03;;;18.30;85.10;;;-143.14;100.00;56521.75;4890071;29;20563;-70
2022/03/27 09:54:54;;;;;;;26.23;12.63;;;18.40;85.70;;;-143.14;100.00;56521.75;4890674;29;21008;-69
2022/03/27 09:57:24;;;;;;;18.57;11.40;;;18.40;84.50;;;-143.14;100.00;56521.75;4889642;29;20843;-69
2022/03/27 09:59:54;;;;;;;22.77;13.00;;;18.40;83.30;;;-143.14;100.00;56521.75;4896802;29;20455;-69
2022/03/27 10:02:26;;;;;;;20.00;11.73;;;18.50;81.90;;;-143.14;100.00;56521.75;4899543;29;20496;-67
2022/03/27 10:05:04;;;;;;;18.03;11.40;;;18.60;82.70;;;-143.14;100.00;56521.75;4909461;29;20451;-73
2022/03/27 10:07:41;;;;;;;16.77;11.00;;;18.60;81.90;;;-143.14;100.00;56521.75;4906764;29;20973;-70
2022/03/27 10:10:12;;;;;;;19.00;11.90;;;18.70;82.70;;;-143.14;100.00;56521.75;4909138;29;20538;-70
2022/03/27 10:12:42;;;;;;;20.37;12.30;;;18.80;80.90;;;-143.14;100.00;56521.75;4907770;29;20867;-71
2022/03/27 10:15:13;;;;;;;25.07;10.87;;;18.80;81.10;;;-143.14;100.00;56521.75;4909376;29;20844;-71
2022/03/27 10:17:43;;;;;;;30.10;11.87;;;18.80;80.60;;;-143.14;100.00;56521.75;4898185;29;20459;-70
2022/03/27 10:20:13;;;;;;;15.67;10.73;;;18.80;82.20;;;-143.14;100.00;56521.75;4895264;29;20460;-71
2022/03/27 10:22:45;;;;;;;17.87;10.30;;;19.00;80.60;;;-143.14;100.00;56521.75;4924954;29;20492;-79
2022/03/27 10:25:16;;;;;;;18.40;10.57;;;19.20;81.00;;;-143.14;100.00;56521.75;4912118;29;20884;-77
2022/03/27 10:27:48;;;;;;;22.00;11.23;;;19.40;78.30;;;-143.14;100.00;56521.75;4908616;29;20526;-77
2022/03/27 10:30:17;;;;;;;18.23;10.83;;;19.40;79.30;;;-143.14;100.00;56521.75;4909370;29;20558;-77
2022/03/27 10:32:45;;;;;;;20.10;9.70;;;19.30;78.50;;;-143.14;100.00;56521.75;4909035;29;20470;-77
2022/03/27 10:35:44;;;;;;;18.97;10.60;;;19.40;78.40;;;-143.14;100.00;56521.75;4909403;29;20463;-77
2022/03/27 10:38:26;;;;;;;19.17;10.27;;;19.60;77.80;;;-143.14;100.00;56521.75;4908598;29;20562;-77
2022/03/27 10:41:08;;;;;;;23.63;11.23;;;19.60;77.50;;;-143.14;100.00;56521.75;4908995;29;20590;-77
2022/03/27 10:43:47;;;;;;;21.03;11.43;;;19.70;77.50;;;-143.14;100.00;56521.75;4909211;29;20496;-77
2022/03/27 10:46:20;;;;;;;18.50;9.80;;;19.80;77.30;;;-143.14;100.00;56521.75;4908011;29;21026;-77
2022/03/27 10:48:50;;;;;;;21.53;10.53;;;19.90;75.00;;;-143.14;100.00;56521.75;4907540;29;20542;-76
2022/03/27 10:51:35;;;;;;;19.73;10.33;;;19.80;75.70;;;-143.14;100.00;56521.75;4907651;29;20921;-76
2022/03/27 10:54:06;;;;;;;17.37;10.43;;;19.90;74.20;;;-143.14;100.00;56521.75;4904680;29;20475;-77
2022/03/27 10:56:37;;;;;;;20.77;11.27;;;20.10;74.70;;;-143.14;100.00;56521.75;4896961;29;20464;-77
2022/03/27 10:59:20;;;;;;;15.90;10.13;;;20.10;75.60;;;-143.14;100.00;56521.75;4898538;29;20469;-77
2022/03/27 11:01:50;;;;;;;19.03;10.70;;;20.30;73.90;;;-143.14;100.00;56521.75;4906851;29;20776;-77
2022/03/27 11:04:19;;;;;;;17.03;10.83;;;20.40;74.10;;;-143.14;100.00;56521.75;4894480;29;20460;-77
2022/03/27 11:06:53;;;;;;;20.50;11.07;;;20.50;73.70;;;-143.14;100.00;56521.75;4892591;29;20471;-77
2022/03/27 11:09:39;;;;;;;17.50;10.47;;;20.60;73.30;;;-143.14;100.00;56521.75;4892673;29;20475;-77
2022/03/27 11:12:29;;;;;;;20.50;11.10;;;20.70;71.10;;;-143.14;100.00;56521.75;4893835;29;20486;-78
2022/03/27 11:15:02;;;;;;;16.77;10.63;;;20.70;70.90;;;-143.14;100.00;56521.75;4893870;29;20463;-78
2022/03/27 11:17:45;;;;;;;16.37;10.10;;;20.90;70.70;;;-143.14;100.00;56521.75;4893011;29;20523;-77
2022/03/27 11:20:55;;;;;;;17.27;10.80;;;21.00;72.20;;;-143.14;100.00;56521.75;4892277;29;20468;-77
2022/03/27 11:23:36;;;;;;;22.10;10.97;;;20.90;69.30;;;-143.14;100.00;56521.75;4892174;29;20444;-77
2022/03/27 11:26:27;;;;;;;21.53;10.63;;;20.90;71.70;;;-143.14;100.00;56521.75;4894085;29;20463;-79
2022/03/27 11:28:59;;;;;;;28.50;12.30;;;20.90;72.50;;;-143.14;100.00;56521.75;4893828;29;21134;-79
2022/03/27 11:31:31;;;;;;;19.63;10.20;;;21.00;69.70;;;-143.14;100.00;56521.75;4893121;29;20599;-77
2022/03/27 11:34:26;;;;;;;19.87;9.80;;;21.00;68.40;;;-143.14;100.00;56521.75;4892953;29;20471;-77
2022/03/27 11:37:25;;;;;;;23.87;11.83;;;21.10;71.00;;;-143.14;100.00;56521.75;4892582;29;20491;-77
2022/03/27 11:39:54;;;;;;;16.07;9.33;;;21.30;68.70;;;-143.14;100.00;56521.75;4893043;29;20463;-76
2022/03/27 11:42:34;;;;;;;24.10;11.13;;;21.30;67.90;;;-143.14;100.00;56521.75;4893090;29;21016;-75
2022/03/27 11:45:26;;;;;;;27.63;9.93;;;21.40;67.70;;;-143.14;100.00;56521.75;4893188;29;20961;-67
2022/03/27 11:47:55;;;;;;;15.30;9.10;;;21.50;70.90;;;-143.14;100.00;56521.75;4870326;29;20563;-74
2022/03/27 11:50:34;;;;;;;21.77;9.53;;;21.50;69.60;;;-143.14;100.00;56521.75;4893028;29;20472;-77
2022/03/27 11:53:03;;;;;;;15.20;9.70;;;21.60;68.10;;;-143.14;100.00;56521.75;4892839;29;20471;-77
2022/03/27 11:55:31;;;;;;;17.90;9.77;;;21.70;68.20;;;-143.14;100.00;56521.75;4892952;29;20456;-72
2022/03/27 11:58:03;;;;;;;18.53;9.20;;;21.80;67.70;;;-143.14;100.00;56521.75;4891771;29;20519;-70
2022/03/27 12:00:37;;;;;;;19.27;9.73;;;21.90;66.10;;;-143.14;100.00;56521.75;4892775;29;20464;-72
2022/03/27 12:03:14;;;;;;;19.63;9.37;;;21.90;63.80;;;-143.14;100.00;56521.75;4892479;29;20503;-75
2022/03/27 12:05:41;;;;;;;18.90;8.87;;;21.90;65.80;;;-143.14;100.00;56521.75;4892657;29;20459;-71
2022/03/27 12:08:11;;;;;;;12.27;8.10;;;22.10;66.40;;;-143.14;100.00;56521.75;4892038;29;20488;-70
2022/03/27 12:10:44;;;;;;;17.03;8.33;;;22.20;66.70;;;-143.14;100.00;56521.75;4892413;29;20488;-69
2022/03/27 12:13:14;;;;;;;18.43;8.87;;;22.40;65.40;;;-143.14;100.00;56521.75;4893310;29;20467;-69
2022/03/27 12:15:49;;;;;;;18.60;9.07;;;22.50;64.40;;;-143.14;100.00;56521.75;4891967;29;20498;-69
2022/03/27 12:18:28;;;;;;;15.33;8.00;;;22.50;63.30;;;-143.14;100.00;56521.75;4891787;29;20471;-71
2022/03/27 12:20:56;;;;;;;12.80;7.90;;;22.50;63.30;;;-143.14;100.00;56521.75;4892149;29;20487;-69
2022/03/27 12:23:27;;;;;;;18.80;9.00;;;22.60;62.80;;;-143.14;100.00;56521.75;4892202;29;20466;-69
2022/03/27 12:31:59;;;;;;;13.50;8.47;;;22.90;58.80;;;-143.14;100.00;56521.75;4892157;29;20459;-74
2022/03/27 12:34:27;;;;;;;11.30;7.10;;;22.90;60.50;;;-143.14;100.00;56521.75;4892026;29;20464;-73
2022/03/27 12:37:22;;;;;;;14.93;8.83;;;23.00;61.10;;;-143.14;100.00;56521.75;4891183;29;20557;-75
2022/03/27 12:40:08;;;;;;;16.20;7.37;;;22.90;62.60;;;-143.14;100.00;56521.75;4890916;29;20519;-75
2022/03/27 12:42:43;;;;;;;41.90;26.27;;;22.90;60.10;;;-143.14;100.00;56521.75;4891571;29;20587;-75
2022/03/27 12:45:17;;;;;;;10.93;7.93;;;22.90;60.90;;;-143.14;100.00;56521.75;4890128;29;20464;-75
2022/03/27 12:47:47;;;;;;;14.10;6.97;;;23.00;59.60;;;-143.14;100.00;56521.75;4890714;29;20478;-75
2022/03/27 12:50:32;;;;;;;67.73;43.20;;;23.10;59.20;;;-143.14;100.00;56521.75;4890723;29;20560;-75
2022/03/27 12:53:01;;;;;;;13.33;8.33;;;23.30;59.80;;;-143.14;100.00;56521.75;4890836;29;20460;-75
2022/03/27 12:55:43;;;;;;;14.30;7.50;;;23.50;58.10;;;-143.14;100.00;56521.75;4890623;29;20460;-75
2022/03/27 12:58:12;;;;;;;12.80;7.80;;;23.60;58.00;;;-143.14;100.00;56521.75;4891128;29;20460;-74
2022/03/27 13:00:45;;;;;;;21.60;7.27;;;23.50;57.40;;;-143.14;100.00;56521.75;4890744;29;20579;-74
2022/03/27 13:03:18;;;;;;;11.23;7.10;;;23.40;58.00;;;-143.14;100.00;56521.75;4891262;29;20499;-74
2022/03/27 13:06:01;;;;;;;14.07;9.70;;;23.40;58.50;;;-143.14;100.00;56521.75;4891254;29;20495;-75
2022/03/27 13:08:31;;;;;;;45.27;30.83;;;23.40;59.70;;;-143.14;100.00;56521.75;4890887;29;20471;-75
2022/03/27 13:10:59;;;;;;;36.53;28.50;;;23.50;59.60;;;-143.14;100.00;56521.75;4890904;29;20488;-75
2022/03/27 13:13:35;;;;;;;16.03;7.87;;;23.60;58.30;;;-143.14;100.00;56521.75;4891321;29;20548;-75
2022/03/27 13:16:20;;;;;;;18.63;9.70;;;23.70;56.80;;;-143.14;100.00;56521.75;4890844;29;20456;-75
2022/03/27 13:19:02;;;;;;;17.50;12.13;;;23.70;58.20;;;-143.14;100.00;56521.75;4890856;29;20466;-75
2022/03/27 13:21:32;;;;;;;22.10;13.93;;;23.70;58.90;;;-143.14;100.00;56521.75;4889173;29;20507;-75
2022/03/27 13:24:00;;;;;;;15.10;8.00;;;23.80;57.70;;;-143.14;100.00;56521.75;4890076;29;20460;-75
2022/03/27 13:26:28;;;;;;;10.83;6.83;;;23.80;57.70;;;-143.14;100.00;56521.75;4890408;29;20452;-75
2022/03/27 13:28:55;;;;;;;11.87;6.90;;;23.90;58.20;;;-143.14;100.00;56521.75;4891160;29;20456;-75
2022/03/27 13:31:24;;;;;;;10.70;7.27;;;24.10;58.30;;;-143.14;100.00;56521.75;4890905;29;20468;-75
2022/03/27 13:33:51;;;;;;;12.80;7.67;;;24.20;56.60;;;-143.14;100.00;56521.75;4890460;29;21364;-75
2022/03/27 13:36:19;;;;;;;18.33;8.27;;;24.30;56.20;;;-143.14;100.00;56521.75;4889998;29;20960;-75
2022/03/27 13:38:47;;;;;;;9.80;6.63;;;24.30;56.40;;;-143.14;100.00;56521.75;4890230;29;20464;-75
2022/03/27 13:43:59;;;;;;;12.83;7.30;;;24.20;57.70;;;-143.14;100.00;56521.75;4890568;29;20467;-75
2022/03/27 13:46:27;;;;;;;13.30;8.27;;;24.40;57.50;;;-143.14;100.00;56521.75;4889771;29;20519;-75
2022/03/27 13:48:54;;;;;;;17.70;7.20;;;24.40;57.40;;;-143.14;100.00;56521.75;4890334;29;20508;-75
2022/03/27 13:51:22;;;;;;;14.63;7.67;;;24.50;57.50;;;-143.14;100.00;56521.75;4890358;29;21008;-75
2022/03/27 13:53:49;;;;;;;13.47;7.60;;;24.60;57.10;;;-143.14;100.00;56521.75;4890521;29;20466;-75
2022/03/27 13:56:16;;;;;;;12.10;7.40;;;24.70;56.60;;;-143.14;100.00;56521.75;4890142;29;20801;-75
2022/03/27 13:58:43;;;;;;;10.40;7.03;;;24.90;57.10;;;-143.14;100.00;56521.75;4890014;29;20474;-75
2022/03/27 14:01:10;;;;;;;17.27;8.10;;;25.00;57.10;;;-143.14;100.00;56521.75;4889979;29;21162;-75
2022/03/27 14:03:40;;;;;;;12.27;7.67;;;25.10;56.50;;;-143.14;100.00;56521.75;4890250;29;20496;-75
2022/03/27 14:06:07;;;;;;;13.77;7.27;;;25.10;55.70;;;-143.14;100.00;56521.75;4890251;29;20551;-75
2022/03/27 14:08:34;;;;;;;8.80;6.33;;;25.10;56.60;;;-143.14;100.00;56521.75;4889506;29;20464;-75
2022/03/27 14:11:01;;;;;;;13.63;8.57;;;25.20;57.30;;;-143.14;100.00;56521.75;4890061;29;20579;-75
2022/03/27 14:13:28;;;;;;;13.60;8.27;;;25.30;56.40;;;-143.14;100.00;56521.75;4890007;29;20460;-75
2022/03/27 14:15:55;;;;;;;17.87;8.10;;;25.50;56.00;;;-143.14;100.00;56521.75;4890107;29;20460;-75
2022/03/27 14:18:22;;;;;;;14.77;7.90;;;25.50;56.30;;;-143.14;100.00;56521.75;4889638;29;20861;-75